Time;durP1;ratioP1;P1;durP2;ratioP2;P2;SDS_P1;SDS_P2;PMS_P1;PMS_P2;Temp;Humidity;BMP_temperature;BMP_pressure;BME280_temperature;BME280_humidity;BME280_pressure;Samples;Min_cycle;Max_cycle;Signal;HPM_P1;HPM_P2
2021/10/19 00:00:06;;;;;;;19.12;13.50;;;6.70;99.90;;;;;;2012208;70;21890;-78
2021/10/19 00:02:32;;;;;;;24.50;13.48;;;6.70;99.90;;;;;;2017464;70;21594;-79
2021/10/19 00:04:58;;;;;;;15.53;11.93;;;6.70;99.90;;;;;;1995507;70;21046;-79
2021/10/19 00:07:24;;;;;;;19.85;13.15;;;6.60;99.90;;;;;;2017369;70;21028;-78
2021/10/19 00:09:50;;;;;;;21.93;12.98;;;6.60;99.90;;;;;;2001223;70;21022;-78
2021/10/19 00:12:16;;;;;;;21.20;12.78;;;6.70;99.90;;;;;;2006637;70;21099;-78
2021/10/19 00:14:42;;;;;;;17.25;11.93;;;6.70;99.90;;;;;;2019882;70;21137;-78
2021/10/19 00:17:09;;;;;;;21.80;13.05;;;6.60;99.90;;;;;;2005699;70;21128;-78
2021/10/19 00:19:36;;;;;;;17.73;11.85;;;6.50;99.90;;;;;;1999705;70;21175;-78
2021/10/19 00:22:02;;;;;;;22.42;13.25;;;6.40;99.90;;;;;;2004614;70;21062;-78
2021/10/19 00:24:28;;;;;;;22.62;13.22;;;6.40;99.90;;;;;;2004567;70;21116;-78
2021/10/19 00:26:54;;;;;;;19.85;12.58;;;6.30;99.90;;;;;;2014278;70;21059;-78
2021/10/19 00:29:21;;;;;;;19.23;12.82;;;6.40;99.90;;;;;;2016323;70;21027;-78
2021/10/19 00:31:47;;;;;;;22.32;12.80;;;6.30;99.90;;;;;;2016452;70;21059;-78
2021/10/19 00:34:13;;;;;;;22.82;13.95;;;6.30;99.90;;;;;;2009067;70;21119;-78
2021/10/19 00:36:39;;;;;;;20.90;13.15;;;6.30;99.90;;;;;;1993765;70;21127;-77
2021/10/19 00:39:05;;;;;;;27.13;15.32;;;6.30;99.90;;;;;;2006999;70;21051;-78
2021/10/19 00:41:31;;;;;;;22.37;14.10;;;6.20;99.90;;;;;;2011715;70;21119;-78
2021/10/19 00:43:58;;;;;;;20.40;13.28;;;6.20;99.90;;;;;;2001676;70;21133;-77
2021/10/19 00:46:25;;;;;;;20.90;13.28;;;6.20;99.90;;;;;;2006854;70;21107;-79
2021/10/19 00:48:51;;;;;;;21.27;12.35;;;6.10;99.90;;;;;;2017167;70;21046;-77
2021/10/19 00:51:17;;;;;;;24.35;12.80;;;6.00;99.90;;;;;;2009717;70;21071;-78
2021/10/19 00:53:43;;;;;;;16.93;12.70;;;6.00;99.90;;;;;;2015272;70;21131;-78
2021/10/19 00:56:09;;;;;;;22.50;13.13;;;5.90;99.90;;;;;;2004292;70;21120;-77
2021/10/19 00:58:35;;;;;;;22.70;13.75;;;5.90;99.90;;;;;;2006566;70;21103;-77
2021/10/19 01:01:01;;;;;;;21.23;13.68;;;6.00;99.90;;;;;;2011479;70;21116;-78
2021/10/19 01:03:27;;;;;;;20.85;13.93;;;6.10;99.90;;;;;;1990810;70;21066;-78
2021/10/19 01:05:54;;;;;;;23.55;14.40;;;6.10;99.90;;;;;;1999491;70;21176;-78
2021/10/19 01:08:20;;;;;;;32.93;13.60;;;6.00;99.90;;;;;;2018315;70;21135;-77
2021/10/19 01:10:46;;;;;;;18.98;12.95;;;6.00;99.90;;;;;;2002390;70;21051;-78
2021/10/19 01:13:12;;;;;;;20.05;12.82;;;6.00;99.90;;;;;;2006541;70;21031;-78
2021/10/19 01:15:38;;;;;;;28.12;13.22;;;6.10;99.90;;;;;;2015669;70;21128;-79
2021/10/19 01:18:04;;;;;;;17.10;12.73;;;6.10;99.90;;;;;;2007239;70;21061;-78
2021/10/19 01:20:30;;;;;;;17.77;12.73;;;6.10;99.90;;;;;;1990123;70;21112;-78
2021/10/19 01:22:56;;;;;;;25.62;13.35;;;6.00;99.90;;;;;;2015802;70;21067;-78
2021/10/19 01:25:23;;;;;;;20.60;13.15;;;6.00;99.90;;;;;;2021175;70;21128;-78
2021/10/19 01:27:49;;;;;;;18.35;11.85;;;5.90;99.90;;;;;;2024062;70;21236;-77
2021/10/19 01:30:15;;;;;;;21.90;12.37;;;5.90;99.90;;;;;;1995574;70;21510;-78
2021/10/19 01:32:42;;;;;;;21.93;12.60;;;5.90;99.90;;;;;;2013196;70;21087;-78
2021/10/19 01:35:09;;;;;;;21.12;13.08;;;5.90;99.90;;;;;;2004967;70;21479;-77
2021/10/19 01:43:03;;;;;;;20.30;13.18;;;6.00;99.90;;;;;;2015431;70;21042;-77
2021/10/19 01:45:29;;;;;;;20.37;13.18;;;6.00;99.90;;;;;;2021472;70;21058;-78
2021/10/19 01:47:55;;;;;;;20.95;13.00;;;5.90;99.90;;;;;;1996654;70;21055;-78
2021/10/19 01:50:21;;;;;;;20.25;12.73;;;5.90;99.90;;;;;;2023677;70;21059;-78
2021/10/19 01:52:47;;;;;;;17.25;12.58;;;6.00;99.90;;;;;;1995784;70;21132;-78
2021/10/19 01:55:13;;;;;;;18.73;12.37;;;6.00;99.90;;;;;;2007599;70;21140;-78
2021/10/19 01:57:39;;;;;;;21.75;13.28;;;6.10;99.90;;;;;;2023357;70;21182;-78
2021/10/19 02:00:06;;;;;;;18.77;12.55;;;6.10;99.90;;;;;;2021408;70;21131;-78
2021/10/19 02:02:32;;;;;;;21.02;13.32;;;6.10;99.90;;;;;;2009040;70;21174;-77
2021/10/19 02:04:58;;;;;;;19.90;12.63;;;6.20;99.90;;;;;;2012270;70;21399;-78
2021/10/19 02:07:24;;;;;;;24.63;13.93;;;6.20;99.90;;;;;;2006665;70;21498;-79
2021/10/19 02:09:50;;;;;;;20.25;12.93;;;6.20;99.90;;;;;;2016573;70;21449;-78
2021/10/19 02:12:16;;;;;;;20.15;12.95;;;6.20;99.90;;;;;;2001593;70;21470;-78
2021/10/19 02:14:42;;;;;;;20.85;12.60;;;6.30;99.90;;;;;;2005366;70;21440;-78
2021/10/19 02:17:08;;;;;;;22.00;11.80;;;6.30;99.90;;;;;;2024163;70;21607;-77
2021/10/19 02:19:35;;;;;;;22.10;13.10;;;6.40;99.90;;;;;;1998482;70;21111;-79
2021/10/19 02:22:01;;;;;;;21.37;13.40;;;6.40;99.90;;;;;;1993897;70;21084;-79
2021/10/19 02:24:27;;;;;;;22.00;13.83;;;6.40;99.90;;;;;;1994172;70;21086;-79
2021/10/19 02:26:53;;;;;;;18.57;12.55;;;6.50;99.90;;;;;;2004621;70;21124;-79
2021/10/19 02:29:19;;;;;;;14.30;11.73;;;6.50;99.90;;;;;;2023678;70;21165;-80
2021/10/19 02:31:47;;;;;;;17.65;11.60;;;6.50;99.90;;;;;;2024771;70;21057;-79
2021/10/19 02:34:14;;;;;;;22.32;12.40;;;6.60;99.90;;;;;;2020861;70;21445;-79
2021/10/19 02:36:40;;;;;;;20.05;12.25;;;6.50;99.90;;;;;;2016977;70;21129;-80
2021/10/19 02:39:06;;;;;;;17.65;11.68;;;6.50;99.90;;;;;;2001825;70;21062;-79
2021/10/19 02:41:32;;;;;;;21.25;12.80;;;6.50;99.90;;;;;;2015494;70;21510;-80
2021/10/19 02:43:58;;;;;;;19.67;12.05;;;6.70;99.90;;;;;;2024240;70;21492;-80
2021/10/19 02:46:25;;;;;;;16.90;11.70;;;6.70;99.90;;;;;;2014751;70;21415;-80
2021/10/19 02:48:51;;;;;;;26.77;12.53;;;6.80;99.90;;;;;;1965640;70;21237;-78
2021/10/19 02:51:18;;;;;;;17.30;10.93;;;6.90;99.90;;;;;;2023528;70;21265;-79
2021/10/19 02:53:44;;;;;;;17.17;11.43;;;6.80;99.90;;;;;;2024334;70;21525;-80
2021/10/19 02:56:10;;;;;;;16.20;10.50;;;6.90;99.90;;;;;;1990426;70;21512;-80
2021/10/19 02:58:36;;;;;;;18.62;11.15;;;6.90;99.90;;;;;;2006612;70;21408;-81
2021/10/19 03:01:02;;;;;;;18.17;11.30;;;6.90;99.90;;;;;;2001035;70;21178;-80
2021/10/19 03:03:28;;;;;;;15.58;11.38;;;6.90;99.90;;;;;;2007104;70;21207;-79
2021/10/19 03:05:55;;;;;;;18.27;12.15;;;6.90;99.90;;;;;;2023700;70;21059;-80
2021/10/19 03:08:22;;;;;;;16.27;11.50;;;6.90;99.90;;;;;;2001607;70;21143;-79
2021/10/19 03:10:48;;;;;;;17.48;12.70;;;7.00;99.90;;;;;;2015145;70;21075;-80
2021/10/19 03:13:14;;;;;;;18.40;12.63;;;7.00;99.90;;;;;;1989987;70;21127;-79
2021/10/19 03:15:40;;;;;;;27.17;14.53;;;6.90;99.90;;;;;;1990135;70;21124;-80
2021/10/19 03:18:06;;;;;;;17.95;12.63;;;6.90;99.90;;;;;;2019993;70;21125;-80
2021/10/19 03:20:33;;;;;;;25.37;14.68;;;6.90;99.90;;;;;;2009924;70;21023;-80
2021/10/19 03:22:59;;;;;;;24.85;14.10;;;7.10;99.90;;;;;;1995992;70;21129;-80
2021/10/19 03:25:25;;;;;;;23.07;15.30;;;7.10;99.90;;;;;;2011931;70;21127;-80
2021/10/19 03:27:51;;;;;;;22.87;16.48;;;7.20;99.90;;;;;;2007479;70;21227;-79
2021/10/19 03:30:17;;;;;;;29.10;18.12;;;7.20;99.90;;;;;;2002147;70;21015;-80
2021/10/19 03:32:43;;;;;;;23.65;15.58;;;7.20;99.90;;;;;;1999826;70;21057;-80
2021/10/19 03:35:09;;;;;;;22.15;15.32;;;7.20;99.90;;;;;;2002154;70;21046;-80
2021/10/19 03:37:35;;;;;;;23.90;15.68;;;7.10;99.90;;;;;;1987005;70;21138;-80
2021/10/19 03:40:02;;;;;;;20.72;14.87;;;7.10;99.90;;;;;;2015849;70;21015;-80
2021/10/19 03:42:28;;;;;;;22.48;15.85;;;7.20;99.90;;;;;;1997622;70;21109;-80
2021/10/19 03:44:54;;;;;;;23.73;15.10;;;7.20;99.90;;;;;;2000913;70;21062;-80
2021/10/19 03:47:20;;;;;;;18.73;13.10;;;7.20;99.90;;;;;;1981040;70;21136;-80
2021/10/19 03:49:46;;;;;;;20.55;13.35;;;7.20;99.90;;;;;;2009163;70;21146;-80
2021/10/19 03:52:12;;;;;;;19.07;12.25;;;7.30;99.90;;;;;;2000136;70;21530;-79
2021/10/19 03:54:38;;;;;;;23.77;13.18;;;7.30;99.90;;;;;;2006699;70;21494;-79
2021/10/19 03:57:07;;;;;;;20.12;14.00;;;7.40;99.90;;;;;;2025293;70;21455;-79
2021/10/19 03:59:33;;;;;;;20.12;13.75;;;7.40;99.90;;;;;;1995944;70;21098;-80
2021/10/19 04:02:00;;;;;;;21.70;14.13;;;7.30;99.90;;;;;;2007947;70;21058;-80
2021/10/19 04:04:26;;;;;;;26.07;14.53;;;7.30;99.90;;;;;;1993817;70;21055;-79
2021/10/19 04:06:52;;;;;;;21.25;14.03;;;7.30;99.90;;;;;;2021589;70;21059;-79
2021/10/19 04:09:18;;;;;;;21.90;14.40;;;7.30;99.90;;;;;;2025802;70;21117;-79
2021/10/19 04:11:44;;;;;;;19.12;13.68;;;7.30;99.90;;;;;;1986526;70;21003;-78
2021/10/19 04:14:10;;;;;;;19.57;14.15;;;7.30;99.90;;;;;;1990235;70;21054;-78
2021/10/19 04:16:37;;;;;;;22.02;14.55;;;7.30;99.90;;;;;;2014101;70;21116;-79
2021/10/19 04:19:04;;;;;;;20.50;13.78;;;7.20;99.90;;;;;;1996978;70;21119;-79
2021/10/19 04:21:30;;;;;;;22.98;14.07;;;7.30;99.90;;;;;;1988117;71;21023;-79
2021/10/19 04:23:56;;;;;;;28.47;14.53;;;7.30;99.90;;;;;;1990099;70;21028;-79
2021/10/19 04:26:22;;;;;;;18.60;13.58;;;7.30;99.90;;;;;;1984248;70;21154;-79
2021/10/19 04:28:48;;;;;;;16.30;12.65;;;7.30;99.90;;;;;;1987132;70;21228;-79
2021/10/19 04:31:14;;;;;;;19.23;13.10;;;7.30;99.90;;;;;;1987063;70;21057;-79
2021/10/19 04:33:42;;;;;;;24.07;13.25;;;7.40;99.90;;;;;;2000724;70;21136;-79
2021/10/19 04:36:08;;;;;;;18.65;13.55;;;7.40;99.90;;;;;;2007779;70;21091;-80
2021/10/19 04:38:34;;;;;;;22.67;13.00;;;7.40;99.90;;;;;;1997034;70;21147;-80
2021/10/19 04:41:00;;;;;;;21.68;13.55;;;7.40;99.90;;;;;;2017734;70;21059;-81
2021/10/19 04:43:26;;;;;;;22.40;13.20;;;7.40;99.90;;;;;;2013049;70;21254;-80
2021/10/19 04:45:53;;;;;;;20.40;13.78;;;7.40;99.90;;;;;;1993273;70;21038;-80
2021/10/19 04:48:20;;;;;;;27.32;14.60;;;7.50;99.90;;;;;;2001149;70;21139;-80
2021/10/19 04:50:46;;;;;;;26.82;14.28;;;7.50;99.90;;;;;;2027249;70;21055;-80
2021/10/19 04:53:12;;;;;;;19.45;13.85;;;7.50;99.90;;;;;;2021562;70;21250;-81
2021/10/19 04:55:38;;;;;;;17.80;13.28;;;7.50;99.90;;;;;;1994671;70;21085;-81
2021/10/19 04:58:04;;;;;;;19.07;13.48;;;7.50;99.90;;;;;;2000546;70;21914;-81
2021/10/19 05:00:30;;;;;;;23.62;13.48;;;7.60;99.90;;;;;;2002968;70;21492;-81
2021/10/19 05:02:57;;;;;;;18.15;13.55;;;7.60;99.90;;;;;;2009723;70;21554;-80
2021/10/19 05:05:23;;;;;;;18.12;12.73;;;7.60;99.90;;;;;;2008610;70;21067;-81
2021/10/19 05:07:49;;;;;;;19.02;13.72;;;7.60;99.90;;;;;;1992943;70;21452;-81
2021/10/19 05:10:16;;;;;;;22.15;14.33;;;7.60;99.90;;;;;;2006515;70;21164;-82
2021/10/19 05:12:42;;;;;;;17.42;12.73;;;7.60;99.90;;;;;;1986009;70;21469;-81
2021/10/19 05:15:08;;;;;;;16.60;12.93;;;7.70;99.90;;;;;;2012764;70;21023;-78
2021/10/19 05:17:34;;;;;;;26.35;13.58;;;7.70;99.90;;;;;;1988408;70;21046;-79
2021/10/19 05:20:00;;;;;;;21.90;12.23;;;7.70;99.90;;;;;;1989673;70;21045;-78
2021/10/19 05:22:26;;;;;;;19.57;11.63;;;7.80;99.90;;;;;;2000104;70;21051;-78
2021/10/19 05:24:52;;;;;;;21.90;12.00;;;7.80;99.90;;;;;;2001060;70;21022;-77
2021/10/19 05:27:19;;;;;;;22.48;12.35;;;7.80;99.90;;;;;;1986196;70;21048;-78
2021/10/19 05:29:45;;;;;;;21.00;12.23;;;7.90;99.90;;;;;;2024148;70;21140;-79
2021/10/19 05:32:11;;;;;;;23.35;10.88;;;8.00;99.90;;;;;;1999757;70;21515;-78
2021/10/19 05:34:37;;;;;;;23.67;11.97;;;8.10;99.90;;;;;;2013079;70;21427;-79
2021/10/19 05:37:03;;;;;;;16.32;11.00;;;8.20;99.90;;;;;;1996732;70;21405;-80
2021/10/19 05:39:29;;;;;;;20.35;11.53;;;8.20;99.90;;;;;;1991987;70;21505;-79
2021/10/19 05:41:55;;;;;;;20.77;12.93;;;8.20;99.90;;;;;;1993758;70;21550;-80
2021/10/19 05:44:21;;;;;;;28.75;11.57;;;8.20;99.90;;;;;;1998026;70;21054;-79
2021/10/19 05:46:47;;;;;;;19.48;11.50;;;8.20;99.90;;;;;;2008528;70;21050;-79
2021/10/19 05:49:14;;;;;;;26.95;11.90;;;8.30;99.90;;;;;;2006738;70;21062;-79
2021/10/19 05:51:40;;;;;;;17.15;12.13;;;8.20;99.90;;;;;;2016687;70;21131;-78
2021/10/19 05:54:06;;;;;;;25.88;10.93;;;8.20;99.90;;;;;;1994515;70;21131;-79
2021/10/19 05:56:32;;;;;;;15.10;10.55;;;8.20;99.90;;;;;;2007402;70;21062;-79
2021/10/19 05:58:58;;;;;;;18.75;10.43;;;8.30;99.90;;;;;;2013739;70;21163;-76
2021/10/19 06:01:24;;;;;;;18.70;11.05;;;8.40;99.90;;;;;;1989845;70;21132;-79
2021/10/19 06:03:50;;;;;;;21.97;10.88;;;8.40;99.90;;;;;;2006488;70;21108;-76
2021/10/19 06:06:17;;;;;;;21.87;11.43;;;8.50;99.90;;;;;;2002557;70;21055;-77
2021/10/19 06:08:44;;;;;;;18.12;11.43;;;8.50;99.90;;;;;;2014823;70;21034;-79
2021/10/19 06:11:10;;;;;;;29.10;11.38;;;8.40;99.90;;;;;;1984987;71;21188;-79
2021/10/19 06:13:36;;;;;;;22.15;11.45;;;8.30;99.90;;;;;;1995490;70;21179;-79
2021/10/19 06:16:02;;;;;;;17.65;11.22;;;8.30;99.90;;;;;;1994649;70;21132;-79
2021/10/19 06:18:28;;;;;;;25.45;13.48;;;8.20;99.90;;;;;;2005949;70;21434;-79
2021/10/19 06:20:54;;;;;;;18.52;12.58;;;8.30;99.90;;;;;;1996824;70;21396;-79
2021/10/19 06:23:22;;;;;;;18.95;11.83;;;8.30;99.90;;;;;;2008037;70;21580;-77
2021/10/19 06:25:48;;;;;;;20.62;12.53;;;8.30;99.90;;;;;;2009982;70;21169;-78
2021/10/19 06:28:14;;;;;;;20.72;12.47;;;8.50;99.90;;;;;;2000414;70;21063;-78
2021/10/19 06:30:40;;;;;;;15.48;11.75;;;8.40;99.90;;;;;;2021058;70;21019;-78
2021/10/19 06:33:06;;;;;;;23.55;11.43;;;8.40;99.90;;;;;;2006013;70;21219;-78
2021/10/19 06:35:32;;;;;;;21.35;12.45;;;8.50;99.90;;;;;;1974193;70;21048;-78
2021/10/19 06:37:58;;;;;;;21.97;12.25;;;8.50;99.90;;;;;;1995627;70;21061;-78
2021/10/19 06:40:24;;;;;;;26.85;11.80;;;8.60;99.90;;;;;;2013658;70;21019;-78
2021/10/19 06:42:51;;;;;;;24.32;12.10;;;8.60;99.90;;;;;;1997859;70;21061;-77
2021/10/19 06:45:17;;;;;;;19.62;11.48;;;8.60;99.90;;;;;;2005220;70;21478;-77
2021/10/19 06:47:43;;;;;;;19.45;12.45;;;8.70;99.90;;;;;;2002375;70;21552;-78
2021/10/19 06:50:10;;;;;;;21.02;12.60;;;8.80;99.90;;;;;;1995714;70;21419;-77
2021/10/19 06:52:36;;;;;;;18.90;11.83;;;8.90;99.90;;;;;;1992815;70;21031;-78
2021/10/19 06:55:03;;;;;;;18.17;11.22;;;8.90;99.90;;;;;;1988991;70;21050;-77
2021/10/19 06:57:30;;;;;;;22.70;11.68;;;8.90;99.90;;;;;;1992082;70;21202;-77
2021/10/19 06:59:57;;;;;;;21.73;11.35;;;9.00;99.90;;;;;;1987043;70;21119;-78
2021/10/19 07:02:23;;;;;;;21.70;11.70;;;9.00;99.90;;;;;;1987953;70;21070;-78
2021/10/19 07:04:49;;;;;;;21.07;11.20;;;9.00;99.90;;;;;;2004340;70;21384;-78
2021/10/19 07:07:15;;;;;;;23.52;11.28;;;9.10;99.90;;;;;;1994779;70;21436;-77
2021/10/19 07:09:41;;;;;;;16.23;11.25;;;9.10;99.90;;;;;;1987743;70;21481;-77
2021/10/19 07:12:07;;;;;;;18.73;10.75;;;9.10;99.90;;;;;;1984317;70;21617;-78
2021/10/19 07:14:34;;;;;;;17.77;10.40;;;9.20;99.90;;;;;;1987139;70;21513;-78
2021/10/19 07:17:00;;;;;;;20.45;10.30;;;9.20;99.90;;;;;;2005083;70;21435;-77
2021/10/19 07:19:27;;;;;;;19.27;11.08;;;9.30;99.90;;;;;;2028604;70;21246;-77
2021/10/19 07:21:53;;;;;;;18.27;10.35;;;9.30;99.90;;;;;;2009558;70;21159;-77
2021/10/19 07:24:19;;;;;;;13.45;9.73;;;9.50;99.90;;;;;;2008123;70;21051;-79
2021/10/19 07:26:45;;;;;;;17.48;10.82;;;9.50;99.90;;;;;;1998815;70;21580;-76
2021/10/19 07:29:11;;;;;;;15.58;9.85;;;9.60;99.90;;;;;;2016076;70;21427;-77
2021/10/19 07:31:38;;;;;;;13.98;9.43;;;9.70;99.90;;;;;;2011588;70;21516;-77
2021/10/19 07:34:04;;;;;;;13.53;9.65;;;9.70;99.90;;;;;;2025248;70;21439;-76
2021/10/19 07:36:32;;;;;;;15.83;9.75;;;9.70;99.90;;;;;;2015108;70;21066;-76
2021/10/19 07:38:58;;;;;;;17.02;9.65;;;9.80;99.90;;;;;;1993354;70;21466;-77
2021/10/19 07:41:24;;;;;;;16.70;9.85;;;9.80;99.90;;;;;;1989385;70;21128;-77
2021/10/19 07:43:50;;;;;;;15.45;9.40;;;9.80;99.90;;;;;;2018088;70;21222;-76
2021/10/19 07:46:16;;;;;;;11.20;7.62;;;9.90;99.90;;;;;;2001305;70;21136;-76
2021/10/19 07:48:42;;;;;;;12.47;8.28;;;9.90;99.90;;;;;;2000016;70;21121;-76
2021/10/19 07:51:08;;;;;;;19.52;9.28;;;9.90;99.90;;;;;;1978276;70;21243;-76
2021/10/19 07:53:34;;;;;;;15.45;8.25;;;10.10;99.90;;;;;;1998935;70;21046;-76
2021/10/19 07:56:01;;;;;;;15.50;8.78;;;10.20;99.90;;;;;;2007590;70;21120;-76
2021/10/19 07:58:27;;;;;;;17.98;8.95;;;10.20;99.90;;;;;;2000404;70;21042;-77
2021/10/19 08:00:54;;;;;;;11.50;8.20;;;10.20;99.90;;;;;;2000930;70;21030;-77
2021/10/19 08:03:20;;;;;;;11.80;8.03;;;10.30;99.90;;;;;;1979484;71;21120;-76
2021/10/19 08:05:47;;;;;;;10.50;8.23;;;10.40;99.90;;;;;;1997299;70;21046;-77
2021/10/19 08:08:13;;;;;;;11.78;8.45;;;10.40;99.90;;;;;;1985453;70;21965;-77
2021/10/19 08:10:39;;;;;;;13.25;7.90;;;10.50;99.90;;;;;;2005551;70;21249;-77
2021/10/19 08:13:06;;;;;;;12.93;8.00;;;10.70;99.90;;;;;;1993529;70;21123;-77
2021/10/19 08:15:34;;;;;;;20.35;8.75;;;10.70;99.90;;;;;;1983635;70;21061;-77
2021/10/19 08:18:00;;;;;;;14.30;8.73;;;10.80;99.90;;;;;;1991738;70;21468;-77
2021/10/19 08:20:26;;;;;;;13.70;8.25;;;10.80;99.90;;;;;;1997184;70;21128;-77
2021/10/19 08:22:52;;;;;;;13.65;8.38;;;10.90;99.90;;;;;;2000786;70;21205;-77
2021/10/19 08:25:18;;;;;;;16.97;10.13;;;11.00;99.90;;;;;;2000844;70;21124;-78
2021/10/19 08:27:44;;;;;;;10.38;7.97;;;10.90;99.90;;;;;;1997926;70;21125;-75
2021/10/19 08:30:10;;;;;;;13.83;8.70;;;11.00;99.90;;;;;;2014889;70;21131;-76
2021/10/19 08:32:37;;;;;;;15.30;9.18;;;11.10;99.90;;;;;;2007077;70;21056;-75
2021/10/19 08:35:03;;;;;;;12.15;8.33;;;11.10;99.90;;;;;;2021065;70;21191;-76
2021/10/19 08:37:29;;;;;;;12.25;8.55;;;11.30;99.90;;;;;;2003599;70;21108;-76
2021/10/19 08:39:55;;;;;;;11.70;8.00;;;11.30;99.90;;;;;;2012843;70;21059;-77
2021/10/19 08:42:21;;;;;;;13.50;8.83;;;11.40;99.90;;;;;;2006368;70;21431;-77
2021/10/19 08:44:47;;;;;;;18.12;8.13;;;11.40;99.90;;;;;;1977918;71;21552;-77
2021/10/19 08:47:13;;;;;;;13.15;8.75;;;11.40;99.90;;;;;;2013818;70;21463;-76
2021/10/19 08:49:40;;;;;;;12.33;7.85;;;11.50;99.90;;;;;;1990813;70;21430;-79
2021/10/19 08:52:06;;;;;;;15.00;8.00;;;11.60;99.90;;;;;;2009129;70;21101;-76
2021/10/19 08:54:32;;;;;;;16.73;7.37;;;11.60;99.90;;;;;;1994587;70;21053;-77
2021/10/19 08:56:58;;;;;;;11.73;7.65;;;11.60;99.90;;;;;;2017021;70;21020;-79
2021/10/19 08:59:25;;;;;;;10.18;6.90;;;11.50;99.90;;;;;;1996768;70;21074;-76
2021/10/19 09:01:53;;;;;;;12.20;7.78;;;11.40;99.90;;;;;;2008717;70;21120;-76
2021/10/19 09:04:19;;;;;;;14.93;8.25;;;11.40;99.90;;;;;;1986167;70;21114;-75
2021/10/19 09:06:45;;;;;;;14.78;8.68;;;11.40;99.90;;;;;;1986380;70;21068;-78
2021/10/19 09:09:12;;;;;;;12.37;7.80;;;11.50;99.90;;;;;;1981775;70;21092;-77
2021/10/19 09:11:38;;;;;;;10.55;7.65;;;11.50;99.90;;;;;;2000663;70;21597;-78
2021/10/19 09:14:04;;;;;;;10.15;7.42;;;11.60;99.90;;;;;;2011806;70;21514;-77
2021/10/19 09:16:30;;;;;;;12.90;7.75;;;11.70;99.90;;;;;;1995680;70;21457;-77
2021/10/19 09:18:56;;;;;;;16.77;7.47;;;11.70;99.90;;;;;;2006746;70;21474;-78
2021/10/19 09:21:23;;;;;;;10.72;7.65;;;11.70;99.90;;;;;;1990928;70;21112;-78
2021/10/19 09:23:50;;;;;;;12.65;8.18;;;11.70;99.90;;;;;;1989133;70;21149;-78
2021/10/19 09:26:16;;;;;;;11.80;7.60;;;11.60;99.90;;;;;;1989808;70;21050;-78
2021/10/19 09:28:42;;;;;;;11.55;7.67;;;11.60;99.90;;;;;;2013068;70;21197;-78
2021/10/19 09:31:08;;;;;;;13.15;7.80;;;11.60;99.90;;;;;;2008170;70;21143;-79
2021/10/19 09:33:34;;;;;;;15.38;7.53;;;11.80;99.90;;;;;;2010603;70;21059;-80
2021/10/19 09:36:02;;;;;;;10.63;7.60;;;11.90;99.90;;;;;;2006220;70;21057;-80
2021/10/19 09:38:28;;;;;;;12.05;6.97;;;12.00;99.90;;;;;;1987537;70;21075;-79
2021/10/19 09:40:58;;;;;;;12.10;7.33;;;12.10;99.90;;;;;;2013250;70;21133;-79
2021/10/19 09:43:22;;;;;;;16.15;10.95;;;12.00;99.90;;;;;;2003566;70;21173;-77
2021/10/19 09:45:53;;;;;;;13.40;7.67;;;12.10;99.90;;;;;;1987064;70;21132;-79
2021/10/19 09:48:16;;;;;;;11.05;7.83;;;12.10;99.90;;;;;;1986206;70;21083;-78
2021/10/19 09:50:44;;;;;;;16.17;8.18;;;12.10;99.90;;;;;;1993121;70;21147;-78
2021/10/19 09:53:11;;;;;;;16.73;9.15;;;12.00;99.90;;;;;;1983735;70;21429;-79
2021/10/19 09:55:37;;;;;;;12.33;8.95;;;12.00;99.90;;;;;;1986910;70;21123;-77
2021/10/19 09:58:03;;;;;;;12.33;8.58;;;12.10;99.90;;;;;;1990698;70;21054;-77
2021/10/19 10:00:32;;;;;;;9.83;7.70;;;12.20;99.90;;;;;;1993129;70;21093;-80
2021/10/19 10:02:59;;;;;;;10.38;6.70;;;12.10;99.90;;;;;;2009872;70;21206;-79
2021/10/19 10:05:25;;;;;;;11.45;6.87;;;12.30;99.90;;;;;;1990975;70;21528;-79
2021/10/19 10:07:56;;;;;;;8.73;5.80;;;12.30;99.90;;;;;;1987045;70;21188;-77
2021/10/19 10:10:22;;;;;;;9.45;7.05;;;12.30;99.90;;;;;;2003417;70;21492;-80
2021/10/19 10:12:50;;;;;;;8.38;5.90;;;12.30;99.90;;;;;;1985315;70;21153;-79
2021/10/19 10:15:14;;;;;;;9.38;5.85;;;12.40;99.90;;;;;;1984229;70;21090;-79
2021/10/19 10:17:40;;;;;;;7.85;6.10;;;12.40;99.90;;;;;;1992584;70;21023;-78
2021/10/19 10:20:07;;;;;;;7.50;5.70;;;12.40;99.90;;;;;;2000738;70;21128;-79
2021/10/19 10:22:33;;;;;;;15.58;7.10;;;12.50;99.90;;;;;;2017281;70;21095;-79
2021/10/19 10:24:59;;;;;;;12.43;8.03;;;12.50;99.90;;;;;;2001573;70;21022;-78
2021/10/19 10:27:25;;;;;;;12.47;6.90;;;12.50;99.90;;;;;;2003340;70;21217;-77
2021/10/19 10:29:55;;;;;;;7.92;5.92;;;12.50;99.90;;;;;;2013717;70;21133;-78
2021/10/19 10:32:19;;;;;;;10.03;6.10;;;12.70;99.90;;;;;;2016978;70;21088;-78
2021/10/19 10:34:45;;;;;;;14.68;6.55;;;12.70;99.90;;;;;;2009730;70;21050;-77
2021/10/19 10:37:11;;;;;;;15.20;8.75;;;12.70;99.90;;;;;;2000976;70;21062;-78
2021/10/19 10:39:38;;;;;;;12.78;6.10;;;12.70;99.90;;;;;;1997892;70;22506;-82
2021/10/19 10:42:04;;;;;;;7.03;5.47;;;12.90;99.90;;;;;;2000675;70;21103;-79
2021/10/19 10:44:30;;;;;;;8.50;5.62;;;12.90;99.90;;;;;;1984451;70;21131;-77
2021/10/19 10:46:58;;;;;;;8.53;5.65;;;13.10;99.90;;;;;;1987176;70;21070;-80
2021/10/19 10:49:24;;;;;;;14.90;6.67;;;13.10;99.90;;;;;;2003608;70;21063;-79
2021/10/19 10:51:50;;;;;;;14.63;5.90;;;13.20;99.90;;;;;;2001662;70;21019;-79
2021/10/19 10:54:16;;;;;;;12.33;4.87;;;13.30;99.90;;;;;;1987373;70;21053;-80
2021/10/19 10:56:42;;;;;;;7.45;5.55;;;13.30;99.90;;;;;;1996653;70;21119;-79
2021/10/19 10:59:08;;;;;;;10.10;5.60;;;13.40;99.90;;;;;;1978961;70;21533;-80
2021/10/19 11:01:35;;;;;;;8.30;5.65;;;13.50;99.90;;;;;;1994300;70;21446;-79
2021/10/19 11:04:01;;;;;;;12.45;8.65;;;13.60;99.90;;;;;;1999435;70;21457;-78
2021/10/19 11:06:27;;;;;;;8.20;5.05;;;13.70;99.90;;;;;;1992801;70;21470;-78
2021/10/19 11:08:53;;;;;;;12.88;5.62;;;13.70;99.90;;;;;;2024476;70;21462;-79
2021/10/19 11:11:19;;;;;;;12.18;5.85;;;13.60;99.90;;;;;;2010201;70;21119;-78
2021/10/19 11:13:45;;;;;;;7.72;5.97;;;13.70;99.90;;;;;;2001976;70;21054;-78
2021/10/19 11:16:11;;;;;;;7.00;5.22;;;13.70;99.90;;;;;;2005027;70;21139;-78
2021/10/19 11:18:37;;;;;;;7.70;5.87;;;13.80;99.90;;;;;;1982841;70;21020;-78
2021/10/19 11:21:03;;;;;;;7.10;5.53;;;13.70;99.90;;;;;;1997876;70;21123;-78
2021/10/19 11:23:30;;;;;;;10.10;5.80;;;13.70;99.90;;;;;;1997748;70;21093;-79
2021/10/19 11:25:58;;;;;;;8.93;5.95;;;13.70;99.90;;;;;;2006508;70;21063;-79
2021/10/19 11:28:24;;;;;;;6.85;5.53;;;13.70;99.90;;;;;;1985210;70;21451;-80
2021/10/19 11:30:50;;;;;;;7.17;5.33;;;13.60;99.90;;;;;;2008633;70;21462;-79
2021/10/19 11:33:18;;;;;;;7.20;5.40;;;13.70;99.90;;;;;;2000086;70;21454;-79
2021/10/19 11:35:44;;;;;;;9.60;5.47;;;13.70;99.90;;;;;;1994981;70;21103;-79
2021/10/19 11:38:10;;;;;;;6.35;5.05;;;13.80;99.90;;;;;;1993070;70;21125;-80
2021/10/19 11:40:36;;;;;;;11.33;5.33;;;13.80;99.90;;;;;;2016166;70;21152;-80
2021/10/19 11:43:02;;;;;;;8.83;5.25;;;13.90;99.90;;;;;;1998183;70;21245;-79
2021/10/19 11:45:29;;;;;;;9.43;5.42;;;13.90;99.90;;;;;;1983848;70;21175;-79
2021/10/19 11:47:55;;;;;;;11.08;6.30;;;14.00;99.90;;;;;;1989623;70;21082;-78
2021/10/19 11:50:22;;;;;;;12.03;6.45;;;13.90;99.90;;;;;;1994207;70;21120;-78
2021/10/19 11:52:48;;;;;;;12.93;5.83;;;13.80;99.90;;;;;;1997939;70;21055;-78
2021/10/19 11:55:14;;;;;;;8.98;6.40;;;13.80;99.90;;;;;;2019546;70;21535;-80
2021/10/19 11:57:40;;;;;;;6.92;5.97;;;13.70;99.90;;;;;;2004438;70;21035;-79
2021/10/19 12:00:07;;;;;;;13.95;6.20;;;13.80;99.90;;;;;;2010114;70;21055;-78
2021/10/19 12:02:33;;;;;;;11.03;6.42;;;13.90;99.90;;;;;;2004207;70;21047;-78
2021/10/19 12:04:59;;;;;;;7.95;6.05;;;13.90;99.90;;;;;;1993404;70;21061;-79
2021/10/19 12:07:27;;;;;;;8.65;6.10;;;14.10;99.90;;;;;;1983284;70;21015;-76
2021/10/19 12:09:53;;;;;;;8.90;5.25;;;14.40;99.90;;;;;;2025565;70;21092;-79
2021/10/19 12:12:19;;;;;;;9.75;5.40;;;14.60;99.90;;;;;;2010923;70;21136;-80
2021/10/19 12:14:45;;;;;;;7.17;5.70;;;14.80;99.90;;;;;;1992498;70;21053;-78
2021/10/19 12:17:11;;;;;;;9.00;6.03;;;14.60;99.90;;;;;;2003033;70;21250;-78
2021/10/19 12:19:38;;;;;;;7.95;6.00;;;14.50;99.90;;;;;;2011986;70;21079;-79
2021/10/19 12:22:04;;;;;;;11.35;5.42;;;14.40;99.90;;;;;;2014940;70;21063;-79
2021/10/19 12:24:31;;;;;;;11.00;5.70;;;14.40;99.90;;;;;;2003122;70;21147;-80
2021/10/19 12:26:57;;;;;;;7.75;5.97;;;14.40;99.90;;;;;;2020273;70;21058;-79
2021/10/19 12:29:23;;;;;;;5.97;4.75;;;14.50;99.90;;;;;;1993713;70;21160;-79
2021/10/19 12:31:49;;;;;;;10.30;5.85;;;14.60;99.90;;;;;;2026493;70;21459;-78
2021/10/19 12:34:17;;;;;;;9.80;6.65;;;14.70;99.90;;;;;;2014327;70;21579;-78
2021/10/19 12:36:43;;;;;;;7.92;4.70;;;14.80;99.90;;;;;;2021306;70;21090;-79